Terminal Aerodrome Forecast
Issued by NWS

Home | Current Version | Previous Version | Text Only | Print | Product List | Glossary On
Versions: 1 2 3 4 5 6 7 8 9 10 11 12 13 14 15 16 17 18 19 20
666
FTUS45 KPIH 250304 AAC
TAFSUN
TAF AMD
KSUN 250304Z 2503/2606 35005KT 6SM BR VCSH SCT005 BKN010
     FM250500 31011KT P6SM SCT020 SCT080
     FM251800 13008KT P6SM VCSH SCT030 BKN050
      AMD LTD TO CLD VIS AND WIND 2506/2514=

USA.gov is the U.S. government's official web portal to all federal, state and local government web resources and services.